createdAt,value
2024-05-09T00:03:52.112Z,15.5
2024-05-09T00:09:28.038Z,15.4
2024-05-09T00:15:03.129Z,15.3
2024-05-09T00:20:40.370Z,15.2
2024-05-09T00:26:18.037Z,15.2
2024-05-09T00:31:54.530Z,15.2
2024-05-09T00:37:31.525Z,15.2
2024-05-09T00:43:07.441Z,15.1
2024-05-09T00:48:43.306Z,15.1
2024-05-09T00:54:19.702Z,15
2024-05-09T00:59:55.236Z,14.9
2024-05-09T01:05:31.262Z,14.9
2024-05-09T01:11:07.832Z,14.8
2024-05-09T01:16:45.972Z,14.7
2024-05-09T01:22:22.063Z,14.7
2024-05-09T01:27:57.584Z,14.7
2024-05-09T01:33:32.988Z,14.7
2024-05-09T01:39:10.405Z,14.6
2024-05-09T01:44:46.031Z,14.6
2024-05-09T01:50:28.799Z,14.5
2024-05-09T01:56:18.682Z,14.5
2024-05-09T02:01:55.569Z,14.5
2024-05-09T02:07:35.694Z,14.4
2024-05-09T02:13:10.681Z,14.3
2024-05-09T02:18:46.497Z,14.3
2024-05-09T02:24:23.297Z,14.2
2024-05-09T02:29:58.540Z,14.2
2024-05-09T02:35:34.072Z,14.1
2024-05-09T02:41:11.501Z,14.1
2024-05-09T02:46:48.020Z,14.1
2024-05-09T02:52:24.420Z,14.1
2024-05-09T02:57:59.999Z,13.9
2024-05-09T03:03:35.528Z,13.9
2024-05-09T03:09:13.467Z,13.8
2024-05-09T03:14:48.788Z,13.8
2024-05-09T03:20:24.274Z,13.8
2024-05-09T03:26:14.012Z,13.7
2024-05-09T03:31:51.555Z,13.7
2024-05-09T03:37:28.446Z,13.6
2024-05-09T03:43:03.743Z,13.5
2024-05-09T03:48:39.040Z,13.5
2024-05-09T03:54:16.170Z,13.4
2024-05-09T03:59:51.741Z,13.4
2024-05-09T04:05:27.651Z,13.3
2024-05-09T04:11:03.290Z,13.3
2024-05-09T04:16:42.164Z,13.2
2024-05-09T04:22:17.554Z,13.2
2024-05-09T04:27:53.224Z,13.1
2024-05-09T04:33:28.931Z,13.1
2024-05-09T04:39:08.215Z,13
2024-05-09T04:44:43.419Z,13
2024-05-09T04:50:25.148Z,13
2024-05-09T04:56:16.293Z,13
2024-05-09T05:01:52.556Z,12.9
2024-05-09T05:07:29.687Z,12.8
2024-05-09T05:13:05.367Z,12.9
2024-05-09T05:18:40.578Z,12.9
2024-05-09T05:24:18.132Z,12.9
2024-05-09T05:29:53.386Z,12.9
2024-05-09T05:35:29.557Z,12.9
2024-05-09T05:41:07.346Z,13
2024-05-09T05:46:44.404Z,13.1
2024-05-09T05:52:20.294Z,12.6
2024-05-09T05:57:55.505Z,12.4
2024-05-09T06:03:31.532Z,12.3
2024-05-09T06:09:11.550Z,12.3
2024-05-09T06:14:50.714Z,12.4
2024-05-09T06:20:34.156Z,12.5
2024-05-09T06:26:20.132Z,12.7
2024-05-09T06:32:00.202Z,12.8
2024-05-09T06:37:40.526Z,13
2024-05-09T06:43:20.193Z,13.3
2024-05-09T06:48:58.775Z,13.5
2024-05-09T06:54:36.157Z,13.7
2024-05-09T07:00:18.624Z,13.9
2024-05-09T07:06:17.956Z,14.2
2024-05-09T07:11:53.568Z,14.2
2024-05-09T07:17:30.361Z,14.5
2024-05-09T07:23:07.906Z,14.7
2024-05-09T07:28:47.212Z,15
2024-05-09T07:34:24.765Z,15.1
2024-05-09T07:40:01.862Z,15.4
2024-05-09T07:46:07.054Z,15.5
2024-05-09T07:59:23.391Z,16
2024-05-09T08:04:58.894Z,16.2
2024-05-09T08:10:36.438Z,16.4
2024-05-09T08:16:12.561Z,16.5
2024-05-09T08:21:50.364Z,16.6
2024-05-09T08:27:26.022Z,16.8
2024-05-09T08:33:02.633Z,17
2024-05-09T08:38:42.095Z,17.2
2024-05-09T08:44:17.158Z,17.4
2024-05-09T08:49:52.788Z,17.6
2024-05-09T08:55:29.558Z,17.8
2024-05-09T09:01:04.962Z,17.9
2024-05-09T09:06:42.287Z,18.1
2024-05-09T09:12:18.391Z,18.2
2024-05-09T09:17:53.705Z,18.4
2024-05-09T09:23:31.128Z,18.6
2024-05-09T09:29:08.670Z,18.6
2024-05-09T09:34:44.129Z,18.8
2024-05-09T09:40:22.197Z,19
2024-05-09T09:46:24.280Z,19.1
2024-05-09T09:52:01.490Z,19.2
2024-05-09T09:57:37.515Z,19.7
2024-05-09T10:03:13.992Z,19.8
2024-05-09T10:08:50.315Z,19.9
2024-05-09T10:14:25.524Z,20
2024-05-09T10:20:01.486Z,20.2
2024-05-09T10:26:02.674Z,20.2
2024-05-09T10:31:40.085Z,20.7
2024-05-09T10:37:16.922Z,21
2024-05-09T10:42:52.894Z,21
2024-05-09T10:48:29.443Z,21.3
2024-05-09T10:54:06.447Z,21.4
2024-05-09T10:59:41.600Z,21.5
2024-05-09T11:05:17.137Z,21.5
2024-05-09T11:10:55.004Z,21.6
2024-05-09T11:16:31.370Z,21.7
2024-05-09T11:22:07.581Z,21.8
2024-05-09T11:27:44.973Z,22.1
2024-05-09T11:33:22.141Z,22.5
2024-05-09T11:38:57.966Z,22.6
2024-05-09T11:44:33.469Z,22.7
2024-05-09T11:50:12.904Z,22.8
2024-05-09T11:56:11.989Z,22.7
2024-05-09T12:01:48.262Z,23.2
2024-05-09T12:07:25.920Z,23.1
2024-05-09T12:13:02.451Z,23.2
2024-05-09T12:18:45.355Z,23.3
2024-05-09T12:24:22.479Z,23.4
2024-05-09T12:29:58.835Z,23.9
2024-05-09T12:35:34.354Z,24.4
2024-05-09T12:41:09.916Z,24.7
2024-05-09T12:46:45.296Z,25
2024-05-09T12:52:21.354Z,25.7
2024-05-09T12:57:57.930Z,25.9
2024-05-09T13:03:34.779Z,27.1
2024-05-09T13:09:12.664Z,28.4
2024-05-09T13:14:48.287Z,31.9
2024-05-09T13:20:28.591Z,41.8
2024-05-09T13:26:12.760Z,44.8
2024-05-09T13:31:48.060Z,45.7
2024-05-09T13:37:23.471Z,46.6
2024-05-09T13:42:59.446Z,48.8
2024-05-09T13:48:36.940Z,48.8
2024-05-09T13:54:14.256Z,50
2024-05-09T13:59:57.455Z,49.8
2024-05-09T14:05:32.668Z,52.8
2024-05-09T14:11:10.473Z,52.7
2024-05-09T14:16:46.694Z,51.3
2024-05-09T14:22:24.331Z,53.9
2024-05-09T14:28:00.098Z,54.7
2024-05-09T14:33:36.600Z,53
2024-05-09T14:39:14.238Z,52.5
2024-05-09T14:44:49.868Z,51.7
2024-05-09T14:50:32.124Z,52.4
2024-05-09T14:56:16.443Z,52.5
2024-05-09T15:01:51.897Z,51.7
2024-05-09T15:07:29.518Z,50.2
2024-05-09T15:13:06.393Z,50.7
2024-05-09T15:18:52.789Z,48.8
2024-05-09T15:24:30.433Z,49.4
2024-05-09T15:30:08.592Z,49.6
2024-05-09T15:36:08.204Z,45.2
2024-05-09T15:41:43.703Z,41
2024-05-09T15:47:18.865Z,47.1
2024-05-09T15:52:54.336Z,49
2024-05-09T15:58:31.631Z,48.5
2024-05-09T16:04:07.408Z,48.3
2024-05-09T16:09:44.974Z,46.3
2024-05-09T16:15:21.126Z,45.9
2024-05-09T16:20:56.355Z,46.8
2024-05-09T16:26:31.667Z,46.3
2024-05-09T16:32:07.299Z,45.5
2024-05-09T16:37:44.380Z,45.5
2024-05-09T16:43:19.502Z,46.9
2024-05-09T16:48:57.316Z,46.7
2024-05-09T16:54:33.458Z,45.2
2024-05-09T17:00:14.503Z,37.8
2024-05-09T17:06:20.607Z,32.1
2024-05-09T17:11:55.073Z,29.3
2024-05-09T17:17:30.062Z,28.1
2024-05-09T17:23:07.245Z,27.5
2024-05-09T17:28:42.059Z,26.5
2024-05-09T17:34:16.948Z,26.3
2024-05-09T17:39:55.068Z,25.7
2024-05-09T17:45:31.635Z,25.3
2024-05-09T17:51:09.295Z,24.6
2024-05-09T17:56:45.053Z,24.8
2024-05-09T18:02:20.405Z,24.5
2024-05-09T18:07:57.574Z,24.3
2024-05-09T18:13:34.396Z,23.8
2024-05-09T18:19:13.261Z,23.3
2024-05-09T18:24:51.244Z,23.1
2024-05-09T18:30:28.248Z,23.1
2024-05-09T18:36:14.984Z,22.8
2024-05-09T18:41:53.715Z,22.3
2024-05-09T18:47:29.618Z,22.1
2024-05-09T18:53:08.807Z,22
2024-05-09T18:58:46.121Z,21.9
2024-05-09T19:04:21.829Z,21.7
2024-05-09T19:09:59.369Z,21.4
2024-05-09T19:15:35.581Z,21.3
2024-05-09T19:21:12.790Z,21
2024-05-09T19:26:48.130Z,20.8
2024-05-09T19:32:23.437Z,20.7
2024-05-09T19:38:00.690Z,20.4
2024-05-09T19:43:36.801Z,20.4
2024-05-09T19:49:12.889Z,20.3
2024-05-09T19:54:50.728Z,20.1
2024-05-09T20:00:29.319Z,19.9
2024-05-09T20:06:20.076Z,19.7
2024-05-09T20:11:56.277Z,19.7
2024-05-09T20:17:32.610Z,19.4
2024-05-09T20:23:09.752Z,19.4
2024-05-09T20:28:46.647Z,19.3
2024-05-09T20:34:22.548Z,19.4
2024-05-09T20:39:59.154Z,19
2024-05-09T20:45:36.351Z,18.8
2024-05-09T20:51:18.887Z,19.7
2024-05-09T20:56:53.981Z,20
2024-05-09T21:02:29.857Z,20
2024-05-09T21:08:07.143Z,20
2024-05-09T21:13:42.988Z,20
2024-05-09T21:19:18.402Z,20
2024-05-09T21:24:55.698Z,20
2024-05-09T21:30:37.925Z,19.9
2024-05-09T21:36:19.314Z,19.9
2024-05-09T21:41:55.047Z,19.8
2024-05-09T21:47:30.816Z,19.7
2024-05-09T21:53:08.141Z,19.7
2024-05-09T21:58:44.724Z,19.6
2024-05-09T22:04:19.845Z,19.5
2024-05-09T22:09:57.516Z,19.4
2024-05-09T22:15:33.908Z,19.4
2024-05-09T22:21:15.268Z,19.3
2024-05-09T22:26:50.808Z,19.2
2024-05-09T22:32:25.877Z,19.1
2024-05-09T22:38:02.926Z,19
2024-05-09T22:43:38.459Z,18.9
2024-05-09T22:49:13.737Z,18.8
2024-05-09T22:54:50.825Z,18.8
2024-05-09T23:00:30.666Z,18.7
2024-05-09T23:06:10.890Z,18.7
2024-05-09T23:11:45.932Z,18.6
2024-05-09T23:17:22.178Z,18.5
2024-05-09T23:22:58.609Z,18.5
2024-05-09T23:28:34.496Z,18.4
2024-05-09T23:34:12.053Z,18.3
2024-05-09T23:39:49.640Z,18.2
2024-05-09T23:45:25.448Z,18.1
2024-05-09T23:51:01.348Z,18.1
2024-05-09T23:56:36.543Z,18
